sensor_id;sensor_type;location;lat;lon;timestamp;P1;durP1;ratioP1;P2;durP2;ratioP2
55210;SDS011;41082;52.822;6.666;2023-09-19T00:01:41;5.43;;;0.60;;
55210;SDS011;41082;52.822;6.666;2023-09-19T00:04:09;8.50;;;0.75;;
55210;SDS011;41082;52.822;6.666;2023-09-19T00:06:36;3.25;;;0.60;;
55210;SDS011;41082;52.822;6.666;2023-09-19T00:09:02;8.60;;;0.50;;
55210;SDS011;41082;52.822;6.666;2023-09-19T00:11:28;2.85;;;0.40;;
55210;SDS011;41082;52.822;6.666;2023-09-19T00:13:54;3.28;;;0.55;;
55210;SDS011;41082;52.822;6.666;2023-09-19T00:16:20;4.22;;;0.50;;
55210;SDS011;41082;52.822;6.666;2023-09-19T00:18:46;3.97;;;0.43;;
55210;SDS011;41082;52.822;6.666;2023-09-19T00:21:11;5.20;;;0.75;;
55210;SDS011;41082;52.822;6.666;2023-09-19T00:23:38;6.05;;;0.93;;
55210;SDS011;41082;52.822;6.666;2023-09-19T00:26:06;4.00;;;0.68;;
55210;SDS011;41082;52.822;6.666;2023-09-19T00:28:31;6.22;;;0.38;;
55210;SDS011;41082;52.822;6.666;2023-09-19T00:30:57;4.95;;;0.35;;
55210;SDS011;41082;52.822;6.666;2023-09-19T00:33:26;5.63;;;0.55;;
55210;SDS011;41082;52.822;6.666;2023-09-19T00:35:52;6.40;;;0.40;;
55210;SDS011;41082;52.822;6.666;2023-09-19T00:38:18;5.07;;;0.70;;
55210;SDS011;41082;52.822;6.666;2023-09-19T00:40:51;6.47;;;1.17;;
55210;SDS011;41082;52.822;6.666;2023-09-19T00:43:18;5.53;;;0.60;;
55210;SDS011;41082;52.822;6.666;2023-09-19T00:45:44;4.95;;;0.40;;
55210;SDS011;41082;52.822;6.666;2023-09-19T00:48:13;5.40;;;0.52;;
55210;SDS011;41082;52.822;6.666;2023-09-19T00:50:40;5.07;;;0.55;;
55210;SDS011;41082;52.822;6.666;2023-09-19T00:53:07;4.95;;;0.80;;
55210;SDS011;41082;52.822;6.666;2023-09-19T00:55:38;3.67;;;0.40;;
55210;SDS011;41082;52.822;6.666;2023-09-19T00:58:05;6.35;;;0.50;;
55210;SDS011;41082;52.822;6.666;2023-09-19T01:00:31;6.13;;;0.90;;
55210;SDS011;41082;52.822;6.666;2023-09-19T01:02:59;9.45;;;0.77;;
55210;SDS011;41082;52.822;6.666;2023-09-19T01:05:27;8.93;;;0.93;;
55210;SDS011;41082;52.822;6.666;2023-09-19T01:07:53;3.53;;;0.75;;
55210;SDS011;41082;52.822;6.666;2023-09-19T01:10:19;8.75;;;1.73;;
55210;SDS011;41082;52.822;6.666;2023-09-19T01:15:21;5.18;;;0.80;;
55210;SDS011;41082;52.822;6.666;2023-09-19T01:18:16;7.35;;;0.80;;
55210;SDS011;41082;52.822;6.666;2023-09-19T01:31:58;8.45;;;0.90;;
55210;SDS011;41082;52.822;6.666;2023-09-19T01:34:26;9.02;;;1.27;;
55210;SDS011;41082;52.822;6.666;2023-09-19T01:36:52;9.43;;;0.82;;
55210;SDS011;41082;52.822;6.666;2023-09-19T01:39:18;12.40;;;1.50;;
55210;SDS011;41082;52.822;6.666;2023-09-19T01:41:49;8.60;;;1.25;;
55210;SDS011;41082;52.822;6.666;2023-09-19T01:44:28;6.95;;;0.93;;
55210;SDS011;41082;52.822;6.666;2023-09-19T01:50:07;8.02;;;1.00;;
55210;SDS011;41082;52.822;6.666;2023-09-19T01:52:38;5.75;;;0.95;;
55210;SDS011;41082;52.822;6.666;2023-09-19T01:55:13;9.57;;;1.00;;
55210;SDS011;41082;52.822;6.666;2023-09-19T01:57:54;6.30;;;1.05;;
55210;SDS011;41082;52.822;6.666;2023-09-19T02:00:26;9.23;;;0.93;;
55210;SDS011;41082;52.822;6.666;2023-09-19T02:02:54;6.60;;;0.98;;
55210;SDS011;41082;52.822;6.666;2023-09-19T02:05:23;7.95;;;0.95;;
55210;SDS011;41082;52.822;6.666;2023-09-19T02:07:49;12.70;;;1.65;;
55210;SDS011;41082;52.822;6.666;2023-09-19T02:10:15;7.00;;;0.85;;
55210;SDS011;41082;52.822;6.666;2023-09-19T02:12:42;6.65;;;0.98;;
55210;SDS011;41082;52.822;6.666;2023-09-19T02:15:07;7.25;;;1.05;;
55210;SDS011;41082;52.822;6.666;2023-09-19T02:17:34;7.57;;;1.30;;
55210;SDS011;41082;52.822;6.666;2023-09-19T02:20:00;11.15;;;1.30;;
55210;SDS011;41082;52.822;6.666;2023-09-19T02:22:25;6.65;;;0.98;;
55210;SDS011;41082;52.822;6.666;2023-09-19T02:24:51;9.65;;;1.40;;
55210;SDS011;41082;52.822;6.666;2023-09-19T02:27:18;8.32;;;1.20;;
55210;SDS011;41082;52.822;6.666;2023-09-19T02:29:44;7.85;;;1.08;;
55210;SDS011;41082;52.822;6.666;2023-09-19T02:32:10;12.35;;;1.40;;
55210;SDS011;41082;52.822;6.666;2023-09-19T02:34:35;9.13;;;1.30;;
55210;SDS011;41082;52.822;6.666;2023-09-19T02:37:04;8.57;;;1.00;;
55210;SDS011;41082;52.822;6.666;2023-09-19T02:39:31;6.45;;;1.10;;
55210;SDS011;41082;52.822;6.666;2023-09-19T02:41:57;5.00;;;0.80;;
55210;SDS011;41082;52.822;6.666;2023-09-19T02:44:22;10.68;;;1.35;;
55210;SDS011;41082;52.822;6.666;2023-09-19T02:46:49;6.68;;;0.90;;
55210;SDS011;41082;52.822;6.666;2023-09-19T02:49:15;8.52;;;1.13;;
55210;SDS011;41082;52.822;6.666;2023-09-19T02:51:40;9.15;;;0.90;;
55210;SDS011;41082;52.822;6.666;2023-09-19T02:54:06;6.95;;;1.02;;
55210;SDS011;41082;52.822;6.666;2023-09-19T02:56:32;7.40;;;1.13;;
55210;SDS011;41082;52.822;6.666;2023-09-19T02:58:58;4.32;;;0.98;;
55210;SDS011;41082;52.822;6.666;2023-09-19T03:01:25;7.47;;;1.10;;
55210;SDS011;41082;52.822;6.666;2023-09-19T03:03:52;10.07;;;1.17;;
55210;SDS011;41082;52.822;6.666;2023-09-19T03:06:18;7.97;;;1.30;;
55210;SDS011;41082;52.822;6.666;2023-09-19T03:08:45;7.50;;;0.70;;
55210;SDS011;41082;52.822;6.666;2023-09-19T03:11:12;9.02;;;1.02;;
55210;SDS011;41082;52.822;6.666;2023-09-19T03:13:39;8.35;;;1.20;;
55210;SDS011;41082;52.822;6.666;2023-09-19T03:16:06;6.50;;;0.82;;
55210;SDS011;41082;52.822;6.666;2023-09-19T03:18:32;8.30;;;1.65;;
55210;SDS011;41082;52.822;6.666;2023-09-19T03:20:59;4.70;;;1.00;;
55210;SDS011;41082;52.822;6.666;2023-09-19T03:23:25;8.75;;;1.20;;
55210;SDS011;41082;52.822;6.666;2023-09-19T03:25:51;7.30;;;0.98;;
55210;SDS011;41082;52.822;6.666;2023-09-19T03:28:17;6.68;;;1.02;;
55210;SDS011;41082;52.822;6.666;2023-09-19T03:30:43;5.82;;;0.70;;
55210;SDS011;41082;52.822;6.666;2023-09-19T03:33:09;10.43;;;1.20;;
55210;SDS011;41082;52.822;6.666;2023-09-19T03:35:37;8.02;;;0.82;;
55210;SDS011;41082;52.822;6.666;2023-09-19T03:38:03;6.50;;;0.80;;
55210;SDS011;41082;52.822;6.666;2023-09-19T03:40:29;5.47;;;1.08;;
55210;SDS011;41082;52.822;6.666;2023-09-19T03:42:55;5.85;;;0.85;;
55210;SDS011;41082;52.822;6.666;2023-09-19T03:45:20;7.25;;;0.80;;
55210;SDS011;41082;52.822;6.666;2023-09-19T03:47:46;5.65;;;0.75;;
55210;SDS011;41082;52.822;6.666;2023-09-19T03:50:14;7.18;;;0.80;;
55210;SDS011;41082;52.822;6.666;2023-09-19T03:52:42;7.60;;;1.50;;
55210;SDS011;41082;52.822;6.666;2023-09-19T03:55:08;2.70;;;0.50;;
55210;SDS011;41082;52.822;6.666;2023-09-19T03:57:34;6.75;;;0.80;;
55210;SDS011;41082;52.822;6.666;2023-09-19T04:00:01;11.98;;;1.33;;
55210;SDS011;41082;52.822;6.666;2023-09-19T04:02:27;8.45;;;1.05;;
55210;SDS011;41082;52.822;6.666;2023-09-19T04:04:58;6.45;;;1.00;;
55210;SDS011;41082;52.822;6.666;2023-09-19T04:07:23;6.10;;;0.80;;
55210;SDS011;41082;52.822;6.666;2023-09-19T04:09:51;10.18;;;0.98;;
55210;SDS011;41082;52.822;6.666;2023-09-19T04:12:18;9.55;;;0.93;;
55210;SDS011;41082;52.822;6.666;2023-09-19T04:14:44;6.20;;;1.33;;
55210;SDS011;41082;52.822;6.666;2023-09-19T04:17:10;7.03;;;0.90;;
55210;SDS011;41082;52.822;6.666;2023-09-19T04:19:36;4.60;;;1.65;;
55210;SDS011;41082;52.822;6.666;2023-09-19T04:22:02;9.57;;;1.52;;
55210;SDS011;41082;52.822;6.666;2023-09-19T04:24:29;8.30;;;1.00;;
55210;SDS011;41082;52.822;6.666;2023-09-19T04:26:54;5.95;;;1.20;;
55210;SDS011;41082;52.822;6.666;2023-09-19T04:29:20;9.02;;;1.45;;
55210;SDS011;41082;52.822;6.666;2023-09-19T04:31:45;6.90;;;1.35;;
55210;SDS011;41082;52.822;6.666;2023-09-19T04:34:11;10.65;;;1.42;;
55210;SDS011;41082;52.822;6.666;2023-09-19T04:36:41;12.68;;;2.00;;
55210;SDS011;41082;52.822;6.666;2023-09-19T04:39:06;6.40;;;1.02;;
55210;SDS011;41082;52.822;6.666;2023-09-19T04:41:33;9.63;;;1.30;;
55210;SDS011;41082;52.822;6.666;2023-09-19T04:43:59;8.55;;;1.38;;
55210;SDS011;41082;52.822;6.666;2023-09-19T04:46:25;9.30;;;1.27;;
55210;SDS011;41082;52.822;6.666;2023-09-19T04:48:50;5.78;;;1.00;;
55210;SDS011;41082;52.822;6.666;2023-09-19T04:51:16;8.73;;;1.02;;
55210;SDS011;41082;52.822;6.666;2023-09-19T04:53:44;8.63;;;1.35;;
55210;SDS011;41082;52.822;6.666;2023-09-19T04:56:09;8.30;;;1.20;;
55210;SDS011;41082;52.822;6.666;2023-09-19T04:58:35;11.27;;;1.48;;
55210;SDS011;41082;52.822;6.666;2023-09-19T05:01:00;6.13;;;1.60;;
55210;SDS011;41082;52.822;6.666;2023-09-19T05:03:27;7.60;;;1.30;;
55210;SDS011;41082;52.822;6.666;2023-09-19T05:05:53;9.30;;;1.40;;
55210;SDS011;41082;52.822;6.666;2023-09-19T05:08:19;10.80;;;1.33;;
55210;SDS011;41082;52.822;6.666;2023-09-19T05:10:45;10.38;;;1.30;;
55210;SDS011;41082;52.822;6.666;2023-09-19T05:13:10;7.40;;;1.38;;
55210;SDS011;41082;52.822;6.666;2023-09-19T05:15:37;10.00;;;1.13;;
55210;SDS011;41082;52.822;6.666;2023-09-19T05:18:02;7.75;;;0.82;;
55210;SDS011;41082;52.822;6.666;2023-09-19T05:20:28;9.15;;;1.17;;
55210;SDS011;41082;52.822;6.666;2023-09-19T05:22:58;8.30;;;1.27;;
55210;SDS011;41082;52.822;6.666;2023-09-19T05:25:27;13.18;;;1.38;;
55210;SDS011;41082;52.822;6.666;2023-09-19T05:27:56;11.82;;;2.20;;
55210;SDS011;41082;52.822;6.666;2023-09-19T05:30:23;7.60;;;0.98;;
55210;SDS011;41082;52.822;6.666;2023-09-19T05:32:49;10.45;;;1.20;;
55210;SDS011;41082;52.822;6.666;2023-09-19T05:35:16;10.40;;;0.95;;
55210;SDS011;41082;52.822;6.666;2023-09-19T05:37:42;12.43;;;1.05;;
55210;SDS011;41082;52.822;6.666;2023-09-19T05:40:07;6.45;;;0.95;;
55210;SDS011;41082;52.822;6.666;2023-09-19T05:42:37;10.73;;;1.20;;
55210;SDS011;41082;52.822;6.666;2023-09-19T05:45:04;9.05;;;1.50;;
55210;SDS011;41082;52.822;6.666;2023-09-19T05:47:31;9.45;;;0.98;;
55210;SDS011;41082;52.822;6.666;2023-09-19T05:49:57;9.10;;;1.25;;
55210;SDS011;41082;52.822;6.666;2023-09-19T05:52:24;16.25;;;2.33;;
55210;SDS011;41082;52.822;6.666;2023-09-19T05:54:50;11.38;;;1.65;;
55210;SDS011;41082;52.822;6.666;2023-09-19T05:57:16;10.63;;;1.42;;
55210;SDS011;41082;52.822;6.666;2023-09-19T05:59:41;9.25;;;1.55;;
55210;SDS011;41082;52.822;6.666;2023-09-19T06:02:08;11.50;;;1.58;;
55210;SDS011;41082;52.822;6.666;2023-09-19T06:04:34;8.65;;;1.35;;
55210;SDS011;41082;52.822;6.666;2023-09-19T06:07:00;8.10;;;1.30;;
55210;SDS011;41082;52.822;6.666;2023-09-19T06:09:30;10.68;;;1.38;;
55210;SDS011;41082;52.822;6.666;2023-09-19T06:11:57;11.23;;;1.20;;
55210;SDS011;41082;52.822;6.666;2023-09-19T06:14:25;10.07;;;2.28;;
55210;SDS011;41082;52.822;6.666;2023-09-19T06:16:51;12.27;;;1.40;;
55210;SDS011;41082;52.822;6.666;2023-09-19T06:19:19;5.85;;;0.80;;
55210;SDS011;41082;52.822;6.666;2023-09-19T06:21:48;9.40;;;1.20;;
55210;SDS011;41082;52.822;6.666;2023-09-19T06:24:14;9.20;;;1.38;;
55210;SDS011;41082;52.822;6.666;2023-09-19T06:26:40;7.03;;;1.33;;
55210;SDS011;41082;52.822;6.666;2023-09-19T06:29:06;8.95;;;1.00;;
55210;SDS011;41082;52.822;6.666;2023-09-19T06:31:32;8.82;;;1.50;;
55210;SDS011;41082;52.822;6.666;2023-09-19T06:33:58;9.90;;;0.80;;
55210;SDS011;41082;52.822;6.666;2023-09-19T06:36:24;9.77;;;1.88;;
55210;SDS011;41082;52.822;6.666;2023-09-19T06:38:50;9.30;;;2.05;;
55210;SDS011;41082;52.822;6.666;2023-09-19T06:41:18;9.50;;;1.35;;
55210;SDS011;41082;52.822;6.666;2023-09-19T06:43:44;7.28;;;0.90;;
55210;SDS011;41082;52.822;6.666;2023-09-19T06:46:10;13.00;;;0.98;;
55210;SDS011;41082;52.822;6.666;2023-09-19T06:48:36;8.40;;;1.40;;
55210;SDS011;41082;52.822;6.666;2023-09-19T06:51:02;8.90;;;1.73;;
55210;SDS011;41082;52.822;6.666;2023-09-19T06:53:30;11.25;;;1.40;;
55210;SDS011;41082;52.822;6.666;2023-09-19T06:56:00;8.73;;;1.60;;
55210;SDS011;41082;52.822;6.666;2023-09-19T06:58:27;14.10;;;1.52;;
55210;SDS011;41082;52.822;6.666;2023-09-19T07:00:53;8.10;;;1.45;;
55210;SDS011;41082;52.822;6.666;2023-09-19T07:03:19;14.55;;;1.58;;
55210;SDS011;41082;52.822;6.666;2023-09-19T07:05:47;11.20;;;1.92;;
55210;SDS011;41082;52.822;6.666;2023-09-19T07:08:13;10.82;;;1.58;;
55210;SDS011;41082;52.822;6.666;2023-09-19T07:10:40;10.07;;;1.25;;
55210;SDS011;41082;52.822;6.666;2023-09-19T07:13:13;8.85;;;1.42;;
55210;SDS011;41082;52.822;6.666;2023-09-19T07:15:42;8.50;;;1.73;;
55210;SDS011;41082;52.822;6.666;2023-09-19T07:18:15;13.25;;;2.05;;
55210;SDS011;41082;52.822;6.666;2023-09-19T07:20:42;10.25;;;1.15;;
55210;SDS011;41082;52.822;6.666;2023-09-19T07:23:11;9.02;;;1.45;;
55210;SDS011;41082;52.822;6.666;2023-09-19T07:25:39;10.38;;;1.30;;
55210;SDS011;41082;52.822;6.666;2023-09-19T07:28:05;14.60;;;1.55;;
55210;SDS011;41082;52.822;6.666;2023-09-19T07:30:31;8.55;;;1.20;;
55210;SDS011;41082;52.822;6.666;2023-09-19T07:32:56;10.35;;;1.33;;
55210;SDS011;41082;52.822;6.666;2023-09-19T07:35:22;8.93;;;1.90;;
55210;SDS011;41082;52.822;6.666;2023-09-19T07:37:48;8.15;;;1.58;;
55210;SDS011;41082;52.822;6.666;2023-09-19T07:40:15;13.15;;;1.55;;
55210;SDS011;41082;52.822;6.666;2023-09-19T07:42:41;8.85;;;1.27;;
55210;SDS011;41082;52.822;6.666;2023-09-19T07:45:08;8.73;;;1.42;;
55210;SDS011;41082;52.822;6.666;2023-09-19T07:47:34;8.25;;;1.30;;
55210;SDS011;41082;52.822;6.666;2023-09-19T07:50:01;6.80;;;1.40;;
55210;SDS011;41082;52.822;6.666;2023-09-19T07:52:28;8.18;;;1.30;;
55210;SDS011;41082;52.822;6.666;2023-09-19T07:54:54;7.88;;;1.75;;
55210;SDS011;41082;52.822;6.666;2023-09-19T07:57:22;11.23;;;1.13;;
55210;SDS011;41082;52.822;6.666;2023-09-19T07:59:48;6.20;;;1.02;;
55210;SDS011;41082;52.822;6.666;2023-09-19T08:02:13;10.95;;;1.50;;
55210;SDS011;41082;52.822;6.666;2023-09-19T08:04:44;10.68;;;1.48;;
55210;SDS011;41082;52.822;6.666;2023-09-19T08:07:11;9.68;;;1.98;;
55210;SDS011;41082;52.822;6.666;2023-09-19T08:09:38;6.55;;;1.50;;
55210;SDS011;41082;52.822;6.666;2023-09-19T08:12:07;8.02;;;1.17;;
55210;SDS011;41082;52.822;6.666;2023-09-19T08:14:35;11.75;;;1.63;;
55210;SDS011;41082;52.822;6.666;2023-09-19T08:17:02;9.82;;;1.35;;
55210;SDS011;41082;52.822;6.666;2023-09-19T08:19:27;13.85;;;1.95;;
55210;SDS011;41082;52.822;6.666;2023-09-19T08:21:56;11.65;;;1.20;;
55210;SDS011;41082;52.822;6.666;2023-09-19T08:24:29;13.43;;;1.70;;
55210;SDS011;41082;52.822;6.666;2023-09-19T08:26:55;12.98;;;1.38;;
55210;SDS011;41082;52.822;6.666;2023-09-19T08:29:22;10.43;;;1.60;;
55210;SDS011;41082;52.822;6.666;2023-09-19T08:31:58;10.05;;;1.70;;
55210;SDS011;41082;52.822;6.666;2023-09-19T08:34:25;10.90;;;1.70;;
55210;SDS011;41082;52.822;6.666;2023-09-19T08:36:54;7.50;;;1.80;;
55210;SDS011;41082;52.822;6.666;2023-09-19T08:39:23;11.48;;;1.73;;
55210;SDS011;41082;52.822;6.666;2023-09-19T08:41:49;11.45;;;1.30;;
55210;SDS011;41082;52.822;6.666;2023-09-19T08:44:21;11.05;;;1.17;;
55210;SDS011;41082;52.822;6.666;2023-09-19T08:46:47;11.55;;;1.50;;
55210;SDS011;41082;52.822;6.666;2023-09-19T08:54:59;8.55;;;1.70;;
55210;SDS011;41082;52.822;6.666;2023-09-19T08:57:29;11.27;;;1.90;;
55210;SDS011;41082;52.822;6.666;2023-09-19T09:00:01;12.93;;;1.48;;
55210;SDS011;41082;52.822;6.666;2023-09-19T09:02:35;9.85;;;1.52;;
55210;SDS011;41082;52.822;6.666;2023-09-19T09:07:35;12.07;;;1.77;;
55210;SDS011;41082;52.822;6.666;2023-09-19T09:10:02;11.40;;;1.77;;
55210;SDS011;41082;52.822;6.666;2023-09-19T09:12:29;10.23;;;2.17;;
55210;SDS011;41082;52.822;6.666;2023-09-19T09:14:55;13.80;;;1.73;;
55210;SDS011;41082;52.822;6.666;2023-09-19T09:17:22;9.07;;;1.25;;
55210;SDS011;41082;52.822;6.666;2023-09-19T09:19:51;12.07;;;1.77;;
55210;SDS011;41082;52.822;6.666;2023-09-19T09:22:18;15.50;;;2.13;;
55210;SDS011;41082;52.822;6.666;2023-09-19T09:24:56;13.25;;;1.92;;
55210;SDS011;41082;52.822;6.666;2023-09-19T09:27:30;11.23;;;2.15;;
55210;SDS011;41082;52.822;6.666;2023-09-19T09:29:57;13.95;;;2.17;;
55210;SDS011;41082;52.822;6.666;2023-09-19T09:32:24;7.40;;;1.30;;
55210;SDS011;41082;52.822;6.666;2023-09-19T09:34:54;14.27;;;1.85;;
55210;SDS011;41082;52.822;6.666;2023-09-19T09:37:22;12.90;;;1.80;;
55210;SDS011;41082;52.822;6.666;2023-09-19T09:39:59;12.30;;;1.33;;
55210;SDS011;41082;52.822;6.666;2023-09-19T09:42:41;9.52;;;2.17;;
55210;SDS011;41082;52.822;6.666;2023-09-19T09:45:15;10.98;;;1.88;;
55210;SDS011;41082;52.822;6.666;2023-09-19T09:48:02;13.50;;;1.85;;
55210;SDS011;41082;52.822;6.666;2023-09-19T09:50:35;13.70;;;1.98;;
55210;SDS011;41082;52.822;6.666;2023-09-19T09:53:24;9.05;;;1.50;;
55210;SDS011;41082;52.822;6.666;2023-09-19T09:56:04;9.80;;;1.75;;
55210;SDS011;41082;52.822;6.666;2023-09-19T10:01:13;12.90;;;1.80;;
55210;SDS011;41082;52.822;6.666;2023-09-19T10:03:41;11.23;;;1.55;;
55210;SDS011;41082;52.822;6.666;2023-09-19T10:06:14;10.60;;;1.33;;
55210;SDS011;41082;52.822;6.666;2023-09-19T10:09:00;8.00;;;1.15;;
55210;SDS011;41082;52.822;6.666;2023-09-19T10:11:35;9.38;;;1.40;;
55210;SDS011;41082;52.822;6.666;2023-09-19T10:14:04;12.05;;;1.77;;
55210;SDS011;41082;52.822;6.666;2023-09-19T10:16:33;10.90;;;1.42;;
55210;SDS011;41082;52.822;6.666;2023-09-19T10:19:01;11.98;;;1.83;;
55210;SDS011;41082;52.822;6.666;2023-09-19T10:21:30;14.35;;;2.28;;
55210;SDS011;41082;52.822;6.666;2023-09-19T10:23:58;9.68;;;1.73;;
55210;SDS011;41082;52.822;6.666;2023-09-19T10:26:26;16.98;;;1.60;;
55210;SDS011;41082;52.822;6.666;2023-09-19T10:28:56;14.25;;;2.08;;
55210;SDS011;41082;52.822;6.666;2023-09-19T10:31:25;12.75;;;1.60;;
55210;SDS011;41082;52.822;6.666;2023-09-19T10:33:52;6.95;;;1.77;;
55210;SDS011;41082;52.822;6.666;2023-09-19T10:36:20;11.23;;;2.10;;
55210;SDS011;41082;52.822;6.666;2023-09-19T10:38:50;9.60;;;1.95;;
55210;SDS011;41082;52.822;6.666;2023-09-19T10:41:21;10.65;;;1.98;;
55210;SDS011;41082;52.822;6.666;2023-09-19T10:43:48;6.55;;;1.10;;
55210;SDS011;41082;52.822;6.666;2023-09-19T10:46:14;9.57;;;1.52;;
55210;SDS011;41082;52.822;6.666;2023-09-19T10:48:40;10.85;;;1.73;;
55210;SDS011;41082;52.822;6.666;2023-09-19T10:51:28;8.95;;;1.70;;
55210;SDS011;41082;52.822;6.666;2023-09-19T10:54:15;12.77;;;2.80;;
55210;SDS011;41082;52.822;6.666;2023-09-19T10:56:44;7.28;;;1.35;;
55210;SDS011;41082;52.822;6.666;2023-09-19T10:59:17;11.15;;;1.65;;
55210;SDS011;41082;52.822;6.666;2023-09-19T11:01:47;10.32;;;1.65;;
55210;SDS011;41082;52.822;6.666;2023-09-19T11:12:47;13.35;;;1.48;;
55210;SDS011;41082;52.822;6.666;2023-09-19T11:14:58;12.02;;;2.35;;
55210;SDS011;41082;52.822;6.666;2023-09-19T11:30:31;10.60;;;1.25;;
55210;SDS011;41082;52.822;6.666;2023-09-19T11:43:50;9.02;;;1.33;;
55210;SDS011;41082;52.822;6.666;2023-09-19T11:46:16;11.63;;;1.67;;
55210;SDS011;41082;52.822;6.666;2023-09-19T11:48:49;12.18;;;1.65;;
55210;SDS011;41082;52.822;6.666;2023-09-19T11:51:19;9.73;;;1.42;;
55210;SDS011;41082;52.822;6.666;2023-09-19T11:53:52;11.13;;;1.55;;
55210;SDS011;41082;52.822;6.666;2023-09-19T11:56:26;11.68;;;1.67;;
55210;SDS011;41082;52.822;6.666;2023-09-19T11:58:56;6.28;;;1.15;;
55210;SDS011;41082;52.822;6.666;2023-09-19T12:01:24;8.48;;;1.52;;
55210;SDS011;41082;52.822;6.666;2023-09-19T12:03:56;9.70;;;1.40;;
55210;SDS011;41082;52.822;6.666;2023-09-19T12:06:24;9.13;;;1.80;;
55210;SDS011;41082;52.822;6.666;2023-09-19T12:08:51;14.38;;;1.48;;
55210;SDS011;41082;52.822;6.666;2023-09-19T12:11:19;7.03;;;1.13;;
55210;SDS011;41082;52.822;6.666;2023-09-19T12:13:48;8.73;;;1.35;;
55210;SDS011;41082;52.822;6.666;2023-09-19T12:16:15;8.57;;;2.05;;
55210;SDS011;41082;52.822;6.666;2023-09-19T12:18:42;9.88;;;1.02;;
55210;SDS011;41082;52.822;6.666;2023-09-19T12:21:21;9.33;;;1.07;;
55210;SDS011;41082;52.822;6.666;2023-09-19T12:23:59;6.78;;;1.25;;
55210;SDS011;41082;52.822;6.666;2023-09-19T12:26:41;8.50;;;1.25;;
55210;SDS011;41082;52.822;6.666;2023-09-19T12:29:15;9.48;;;1.17;;
55210;SDS011;41082;52.822;6.666;2023-09-19T12:31:52;8.55;;;1.25;;
55210;SDS011;41082;52.822;6.666;2023-09-19T12:34:26;8.73;;;0.98;;
55210;SDS011;41082;52.822;6.666;2023-09-19T12:39:39;7.45;;;0.98;;
55210;SDS011;41082;52.822;6.666;2023-09-19T12:42:07;6.82;;;1.30;;
55210;SDS011;41082;52.822;6.666;2023-09-19T12:44:40;5.13;;;1.00;;
55210;SDS011;41082;52.822;6.666;2023-09-19T12:47:20;8.02;;;1.05;;
55210;SDS011;41082;52.822;6.666;2023-09-19T12:52:49;10.65;;;1.23;;
55210;SDS011;41082;52.822;6.666;2023-09-19T12:58:01;7.75;;;1.23;;
55210;SDS011;41082;52.822;6.666;2023-09-19T13:00:43;6.57;;;1.00;;
55210;SDS011;41082;52.822;6.666;2023-09-19T13:06:02;6.22;;;1.67;;
55210;SDS011;41082;52.822;6.666;2023-09-19T13:08:33;7.55;;;0.93;;
55210;SDS011;41082;52.822;6.666;2023-09-19T13:11:09;8.82;;;1.17;;
55210;SDS011;41082;52.822;6.666;2023-09-19T13:13:36;8.60;;;1.17;;
55210;SDS011;41082;52.822;6.666;2023-09-19T13:16:03;10.20;;;1.17;;
55210;SDS011;41082;52.822;6.666;2023-09-19T13:18:57;8.70;;;0.93;;
55210;SDS011;41082;52.822;6.666;2023-09-19T13:21:30;10.05;;;0.98;;
55210;SDS011;41082;52.822;6.666;2023-09-19T13:24:20;9.48;;;1.42;;
55210;SDS011;41082;52.822;6.666;2023-09-19T13:26:52;6.75;;;1.15;;
55210;SDS011;41082;52.822;6.666;2023-09-19T13:29:18;8.63;;;0.90;;
55210;SDS011;41082;52.822;6.666;2023-09-19T13:31:47;11.90;;;1.25;;
55210;SDS011;41082;52.822;6.666;2023-09-19T13:34:14;7.87;;;1.00;;
55210;SDS011;41082;52.822;6.666;2023-09-19T13:36:42;7.28;;;1.00;;
55210;SDS011;41082;52.822;6.666;2023-09-19T13:39:08;9.93;;;0.85;;
55210;SDS011;41082;52.822;6.666;2023-09-19T13:41:34;6.50;;;1.10;;
55210;SDS011;41082;52.822;6.666;2023-09-19T13:44:04;8.82;;;1.00;;
55210;SDS011;41082;52.822;6.666;2023-09-19T13:46:30;6.82;;;0.88;;
55210;SDS011;41082;52.822;6.666;2023-09-19T13:49:00;5.68;;;0.98;;
55210;SDS011;41082;52.822;6.666;2023-09-19T13:51:29;8.55;;;1.33;;
55210;SDS011;41082;52.822;6.666;2023-09-19T13:53:58;6.28;;;0.75;;
55210;SDS011;41082;52.822;6.666;2023-09-19T13:56:26;7.90;;;1.15;;
55210;SDS011;41082;52.822;6.666;2023-09-19T13:58:57;5.22;;;1.30;;
55210;SDS011;41082;52.822;6.666;2023-09-19T14:01:22;6.88;;;0.60;;
55210;SDS011;41082;52.822;6.666;2023-09-19T14:03:48;9.00;;;0.85;;
55210;SDS011;41082;52.822;6.666;2023-09-19T14:06:16;4.40;;;0.70;;
55210;SDS011;41082;52.822;6.666;2023-09-19T14:08:43;5.63;;;1.02;;
55210;SDS011;41082;52.822;6.666;2023-09-19T14:11:12;4.30;;;0.60;;
55210;SDS011;41082;52.822;6.666;2023-09-19T14:13:39;6.38;;;0.88;;
55210;SDS011;41082;52.822;6.666;2023-09-19T14:16:05;5.22;;;0.65;;
55210;SDS011;41082;52.822;6.666;2023-09-19T14:18:32;6.97;;;0.82;;
55210;SDS011;41082;52.822;6.666;2023-09-19T14:20:58;4.85;;;0.75;;
55210;SDS011;41082;52.822;6.666;2023-09-19T14:23:28;7.50;;;0.52;;
55210;SDS011;41082;52.822;6.666;2023-09-19T14:25:54;7.20;;;0.70;;
55210;SDS011;41082;52.822;6.666;2023-09-19T14:28:19;4.53;;;0.85;;
55210;SDS011;41082;52.822;6.666;2023-09-19T14:30:45;4.43;;;0.50;;
55210;SDS011;41082;52.822;6.666;2023-09-19T14:33:11;5.60;;;0.40;;
55210;SDS011;41082;52.822;6.666;2023-09-19T14:35:37;6.53;;;0.70;;
55210;SDS011;41082;52.822;6.666;2023-09-19T14:38:03;5.05;;;0.60;;
55210;SDS011;41082;52.822;6.666;2023-09-19T14:40:29;4.80;;;0.70;;
55210;SDS011;41082;52.822;6.666;2023-09-19T14:42:56;6.15;;;0.40;;
55210;SDS011;41082;52.822;6.666;2023-09-19T14:45:21;6.28;;;0.52;;
55210;SDS011;41082;52.822;6.666;2023-09-19T14:47:47;2.50;;;0.40;;
55210;SDS011;41082;52.822;6.666;2023-09-19T14:50:13;6.32;;;0.60;;
55210;SDS011;41082;52.822;6.666;2023-09-19T14:52:40;5.72;;;0.40;;
55210;SDS011;41082;52.822;6.666;2023-09-19T14:55:06;5.63;;;0.65;;
55210;SDS011;41082;52.822;6.666;2023-09-19T14:57:34;8.20;;;0.60;;
55210;SDS011;41082;52.822;6.666;2023-09-19T15:00:02;4.60;;;1.02;;
55210;SDS011;41082;52.822;6.666;2023-09-19T15:02:30;5.20;;;0.50;;
55210;SDS011;41082;52.822;6.666;2023-09-19T15:04:56;6.25;;;0.50;;
55210;SDS011;41082;52.822;6.666;2023-09-19T15:07:21;7.03;;;0.50;;
55210;SDS011;41082;52.822;6.666;2023-09-19T15:09:47;4.32;;;0.52;;
55210;SDS011;41082;52.822;6.666;2023-09-19T15:12:13;5.93;;;0.70;;
55210;SDS011;41082;52.822;6.666;2023-09-19T15:14:39;2.83;;;0.30;;
55210;SDS011;41082;52.822;6.666;2023-09-19T15:17:07;4.53;;;0.70;;
55210;SDS011;41082;52.822;6.666;2023-09-19T15:19:32;5.45;;;0.50;;
55210;SDS011;41082;52.822;6.666;2023-09-19T15:21:58;4.85;;;0.50;;
55210;SDS011;41082;52.822;6.666;2023-09-19T15:24:24;8.13;;;0.73;;
55210;SDS011;41082;52.822;6.666;2023-09-19T15:26:52;5.32;;;0.70;;
55210;SDS011;41082;52.822;6.666;2023-09-19T15:29:17;5.22;;;0.30;;
55210;SDS011;41082;52.822;6.666;2023-09-19T15:31:44;6.35;;;1.00;;
55210;SDS011;41082;52.822;6.666;2023-09-19T15:34:10;4.78;;;0.43;;
55210;SDS011;41082;52.822;6.666;2023-09-19T15:36:39;2.83;;;0.50;;
55210;SDS011;41082;52.822;6.666;2023-09-19T15:39:08;5.32;;;0.30;;
55210;SDS011;41082;52.822;6.666;2023-09-19T15:41:39;4.30;;;0.55;;
55210;SDS011;41082;52.822;6.666;2023-09-19T15:44:15;7.82;;;0.77;;
55210;SDS011;41082;52.822;6.666;2023-09-19T15:46:42;4.65;;;0.45;;
55210;SDS011;41082;52.822;6.666;2023-09-19T15:49:09;8.80;;;0.52;;
55210;SDS011;41082;52.822;6.666;2023-09-19T15:51:35;3.10;;;0.30;;
55210;SDS011;41082;52.822;6.666;2023-09-19T15:54:01;2.72;;;0.30;;
55210;SDS011;41082;52.822;6.666;2023-09-19T15:56:32;4.47;;;0.40;;
55210;SDS011;41082;52.822;6.666;2023-09-19T15:58:59;3.75;;;0.40;;
55210;SDS011;41082;52.822;6.666;2023-09-19T16:01:25;5.10;;;0.50;;